EGVNEGDR

Guest
Details From EGVN - Brize Norton Ab
To EGDR - Culdrose
Flight Number -
Tags Generated
Created
Modified
Stats Distance 171 nm / 316 km
Max Altitude 0 ft / 0 m
Waypoints 2
Social Downloads 1
Likes 0
Share VATSIM

Download

Looking for another format? Having issues loading an existing format? Contact us
Advertisement - Login to hide

Notes

Generated

Route

EGVN EGDR

ID Type Via Altitude Latitude Longitude Leg Dist Tot Dist Heading (true) Name
O EGVN APT - 0 ft / 0 m 51.74607˚ -1.60421˚ - 0 nm - -
O EGDR APT - 0 ft / 0 m 50.08521˚ -5.26347˚ 170 nm 170 nm 236° / 233° -

Altitude Profile

Advertisement - Login to hide

Weather


0- 5 10 15 20 25 30 35+ Temperature / ° C

Clouds and Precipitation
Forecast for 2017-12-11 12:00 UTC. Updated 44 minutes ago

Ground ~20,000 ft ~40,000 ft Winds

EGVN

Details ICAO EGVN (BZZ)
Name RAF Brize Norton
Region United Kingdom
Timezone Europe/London (UTC+0.0)
Stats Elevation 289 ft / 88 m (AMSL)
Location 51.749979° -1.582958°
Runways 1
Magnetic Variation 0.990° W

METAR

EGVN 110750Z 04018KT 9999 -RASN BKN012 02/M00 Q0981 GRN BECMG FEW012 BLU

Decode

TAF

TAF AMD EGVN 110719Z 1107/1206 04015G25KT 9999 BKN008 BECMG 1107/1109 01015G25KT PROB30 TEMPO 1107/1113 3000 -RASN BR BKN004 BECMG 1111/1114 FEW008 BECMG 1113/1116 34010KT

Decode

Departure Runways

ID Width Length Bearing (true) Bearing (mag) Surface Threshold Offset Overrun Length
08 184 ft / 56 m 10,016 ft / 3,053 m 73.42° 74.41° Asphalt 0 ft / 0 m 459 ft / 140 m
26 184 ft / 56 m 10,016 ft / 3,053 m 253.46° 254.45° Asphalt 0 ft / 0 m 577 ft / 176 m

EGDR

Details ICAO EGDR
Name RNAS Culdrose
Region United Kingdom
Timezone Europe/London (UTC+0.0)
Stats Elevation 267 ft / 81 m (AMSL)
Location 50.086000° -5.254167°
Runways 3
Magnetic Variation 2.091° W

METAR

EGDR 110750Z 02021G34KT 9999 -RA FEW012 BKN022 OVC050 03/02 Q0983 RESHRA WHT TEMPO 4000 SHRASN SCT008 BKN018TCU GRN

Decode

TAF

Not found

Destination Runways

ID Width Length Bearing (true) Bearing (mag) Surface Threshold Offset Overrun Length
07 141 ft / 43 m 3,424 ft / 1,044 m 62.86° 64.95° Asphalt 0 ft / 0 m 0 ft / 0 m
12 148 ft / 45 m 6,006 ft / 1,831 m 112.85° 114.94° Asphalt 0 ft / 0 m 115 ft / 35 m
18 141 ft / 43 m 3,465 ft / 1,056 m 178.54° 180.63° Asphalt 0 ft / 0 m 0 ft / 0 m
25 141 ft / 43 m 3,424 ft / 1,044 m 242.87° 244.96° Asphalt 0 ft / 0 m 0 ft / 0 m
30 148 ft / 45 m 6,006 ft / 1,831 m 292.87° 294.96° Asphalt 0 ft / 0 m 141 ft / 43 m
36 141 ft / 43 m 3,465 ft / 1,056 m 358.54° 0.63° Asphalt 0 ft / 0 m 0 ft / 0 m